Time;durP1;ratioP1;P1;durP2;ratioP2;P2;SDS_P1;SDS_P2;PMS_P1;PMS_P2;Temp;Humidity;BMP_temperature;BMP_pressure;BME280_temperature;BME280_humidity;BME280_pressure;Samples;Min_cycle;Max_cycle;Signal;HPM_P1;HPM_P2
2023/07/29 00:01:58;;;;;;;2.67;2.47;;;;;;;21.81;44.78;97980.69;5112912;28;20270;-56
2023/07/29 00:04:23;;;;;;;4.68;2.38;;;;;;;21.60;45.32;97969.25;5112023;28;20653;-56
2023/07/29 00:06:48;;;;;;;4.20;2.20;;;;;;;21.87;44.74;97982.59;5112797;28;20288;-56
2023/07/29 00:09:14;;;;;;;2.55;2.35;;;;;;;21.71;44.76;97997.78;5112392;28;20226;-56
2023/07/29 00:11:39;;;;;;;2.90;2.60;;;;;;;21.67;44.42;97962.28;5112747;28;20175;-56
2023/07/29 00:14:05;;;;;;;5.13;2.30;;;;;;;21.39;45.67;97985.00;5112345;28;20183;-56
2023/07/29 00:16:30;;;;;;;2.50;2.22;;;;;;;21.45;44.98;97979.00;5112596;28;20175;-56
2023/07/29 00:18:55;;;;;;;2.50;2.30;;;;;;;21.42;44.23;97943.31;5112542;28;20175;-56
2023/07/29 00:21:21;;;;;;;4.68;2.50;;;;;;;21.62;44.31;97983.06;5112470;27;20174;-56
2023/07/29 00:23:46;;;;;;;2.75;2.50;;;;;;;21.57;43.65;97959.09;5112237;28;20300;-56
2023/07/29 00:26:11;;;;;;;2.35;2.17;;;;;;;21.64;44.07;97975.78;5112374;28;20171;-56
2023/07/29 00:28:37;;;;;;;2.80;2.30;;;;;;;21.64;44.03;97971.34;5112158;28;20170;-56
2023/07/29 00:31:02;;;;;;;3.20;2.35;;;;;;;21.50;44.54;97990.59;5112249;28;20320;-56
2023/07/29 00:33:28;;;;;;;2.50;2.30;;;;;;;21.46;44.54;97992.00;5112048;28;20175;-56
2023/07/29 00:35:53;;;;;;;2.13;2.00;;;;;;;21.38;44.39;97957.03;5111915;28;20642;-57
2023/07/29 00:38:19;;;;;;;3.83;2.42;;;;;;;21.40;44.40;97963.72;5112190;27;20177;-56
2023/07/29 00:40:44;;;;;;;2.42;2.10;;;;;;;21.43;45.00;97965.19;5112157;28;20488;-56
2023/07/29 00:43:10;;;;;;;2.28;2.13;;;;;;;21.54;44.70;97978.72;5111781;28;20706;-57
2023/07/29 00:45:36;;;;;;;2.85;2.17;;;;;;;21.46;44.77;97964.84;5112041;28;20212;-56
2023/07/29 00:48:02;;;;;;;3.28;2.28;;;;;;;21.35;44.77;97952.13;5112030;28;20178;-56
2023/07/29 00:50:30;;;;;;;2.35;2.08;;;;;;;21.28;45.23;97949.41;5111925;28;20198;-56
2023/07/29 00:52:56;;;;;;;2.15;2.03;;;;;;;21.58;44.85;97980.00;5112173;28;20167;-56
2023/07/29 00:55:22;;;;;;;3.72;2.20;;;;;;;21.48;45.01;97978.63;5112159;28;20201;-56
2023/07/29 00:57:49;;;;;;;5.75;2.40;;;;;;;21.60;45.08;97987.69;5111618;28;20171;-56
2023/07/29 01:00:17;;;;;;;2.35;2.17;;;;;;;21.08;46.35;97961.50;5111670;28;20189;-56
2023/07/29 01:02:43;;;;;;;2.28;2.17;;;;;;;21.09;45.48;97947.34;5111744;28;20171;-56
2023/07/29 01:05:12;;;;;;;3.13;2.33;;;;;;;21.36;45.54;97974.81;5111650;28;20270;-57
2023/07/29 01:08:05;;;;;;;2.70;2.25;;;;;;;21.53;45.48;97978.88;5108897;28;20199;-56
2023/07/29 01:10:44;;;;;;;2.70;2.33;;;;;;;21.60;45.05;97977.16;5109095;28;20560;-56
2023/07/29 01:13:40;;;;;;;2.50;2.28;;;;;;;21.55;45.05;97968.97;5109220;28;20593;-56
2023/07/29 01:16:15;;;;;;;2.53;2.30;;;;;;;21.55;45.15;97964.53;5103133;28;20293;-57
2023/07/29 01:18:42;;;;;;;2.75;2.55;;;;;;;21.35;45.81;97928.44;5109066;28;20655;-57
2023/07/29 01:21:09;;;;;;;2.28;2.08;;;;;;;21.53;45.84;97963.09;5108928;28;20601;-56
2023/07/29 01:23:35;;;;;;;2.00;1.90;;;;;;;21.37;45.67;97955.38;5109000;28;20186;-56
2023/07/29 01:26:02;;;;;;;2.70;2.50;;;;;;;21.15;45.71;97930.81;5108998;28;20179;-56
2023/07/29 01:28:27;;;;;;;5.78;2.35;;;;;;;21.05;45.38;97932.09;5108923;28;20211;-56
2023/07/29 01:31:16;;;;;;;4.25;2.40;;;;;;;21.14;46.14;97959.94;5108802;28;20293;-56
2023/07/29 01:33:52;;;;;;;4.88;2.70;;;;;;;21.20;45.92;97948.69;5068180;28;20217;-56
2023/07/29 01:36:23;;;;;;;2.97;2.33;;;;;;;21.35;45.93;97973.19;5068460;28;20584;-56
2023/07/29 01:38:51;;;;;;;2.53;2.10;;;;;;;21.26;46.28;97980.38;5080094;28;20189;-57
2023/07/29 01:41:17;;;;;;;2.60;2.40;;;;;;;21.07;46.77;97985.34;5088480;28;20654;-56
2023/07/29 01:43:43;;;;;;;5.07;2.40;;;;;;;20.57;47.24;97951.78;5088396;28;20195;-56
2023/07/29 01:46:13;;;;;;;2.45;2.25;;;;;;;20.75;46.79;97951.47;5088505;28;20618;-57
2023/07/29 01:48:39;;;;;;;3.67;2.67;;;;;;;21.02;47.05;97953.50;5088405;28;20211;-56
2023/07/29 01:51:05;;;;;;;2.70;2.50;;;;;;;21.08;47.15;97973.81;5088295;28;20685;-56
2023/07/29 01:53:30;;;;;;;3.53;2.33;;;;;;;20.84;47.75;97942.47;5088356;28;20677;-56
2023/07/29 01:55:57;;;;;;;2.47;2.15;;;;;;;21.06;47.78;97983.72;5088428;28;20229;-56
2023/07/29 01:58:22;;;;;;;3.15;2.42;;;;;;;20.98;48.05;97968.03;5088306;28;20175;-56
2023/07/29 02:00:48;;;;;;;2.50;2.40;;;;;;;20.88;47.83;97965.66;5088435;28;20252;-56
2023/07/29 02:03:13;;;;;;;2.75;2.50;;;;;;;20.77;48.45;97957.34;5088284;28;20179;-56
2023/07/29 02:05:39;;;;;;;3.70;2.33;;;;;;;20.68;48.92;97947.94;5108783;28;20706;-58
2023/07/29 02:08:04;;;;;;;2.40;2.28;;;;;;;20.56;49.00;97947.53;5110876;28;20195;-54
2023/07/29 02:10:30;;;;;;;2.60;2.40;;;;;;;20.67;49.13;97967.31;5110964;28;20256;-55
2023/07/29 02:12:55;;;;;;;2.40;2.30;;;;;;;20.61;49.28;97960.13;5111030;28;20174;-55
2023/07/29 02:15:20;;;;;;;2.40;2.20;;;;;;;20.70;49.38;97973.03;5111024;28;20552;-55
2023/07/29 02:17:46;;;;;;;2.85;2.55;;;;;;;20.66;49.35;97978.81;5110962;28;20199;-55
2023/07/29 02:20:11;;;;;;;2.33;2.13;;;;;;;20.65;49.73;97985.06;5110958;28;20226;-56
2023/07/29 02:22:37;;;;;;;6.25;4.30;;;;;;;20.36;50.05;97940.31;5110890;28;20254;-55
2023/07/29 02:25:02;;;;;;;7.25;4.88;;;;;;;20.39;49.89;97942.59;5110885;28;20270;-55
2023/07/29 02:27:28;;;;;;;3.25;2.97;;;;;;;20.67;49.72;97976.03;5112601;28;20175;-55
2023/07/29 02:29:54;;;;;;;2.70;2.50;;;;;;;20.74;49.52;97990.09;5114574;28;20199;-55
2023/07/29 02:32:20;;;;;;;2.85;2.63;;;;;;;20.72;49.68;97997.34;5114647;28;20544;-55
2023/07/29 02:34:45;;;;;;;3.80;2.83;;;;;;;20.74;49.66;97990.09;5114641;28;20183;-55
2023/07/29 02:37:11;;;;;;;2.97;2.78;;;;;;;20.82;49.52;97997.91;5114611;28;20633;-55
2023/07/29 02:39:36;;;;;;;4.50;2.50;;;;;;;20.72;49.56;97981.56;5114533;28;20178;-56
2023/07/29 02:42:02;;;;;;;2.70;2.50;;;;;;;20.75;49.58;97980.41;5114561;28;20175;-56
2023/07/29 02:44:28;;;;;;;3.47;2.60;;;;;;;20.59;49.67;97964.75;5114424;28;20269;-55
2023/07/29 02:46:55;;;;;;;2.63;2.25;;;;;;;20.72;49.73;98002.59;5114318;28;20657;-56
2023/07/29 02:49:21;;;;;;;2.60;2.40;;;;;;;20.54;49.93;97967.94;5114227;28;20203;-56
2023/07/29 02:51:47;;;;;;;2.70;2.50;;;;;;;20.69;50.06;97999.50;5114224;28;20210;-56
2023/07/29 02:54:12;;;;;;;2.70;2.50;;;;;;;20.41;50.17;97956.38;5114359;28;20207;-55
2023/07/29 02:56:37;;;;;;;2.88;2.67;;;;;;;20.41;50.29;97978.22;5114189;28;20312;-55
2023/07/29 02:59:03;;;;;;;2.65;2.45;;;;;;;20.42;50.20;97971.16;5114198;28;20179;-55
2023/07/29 03:01:28;;;;;;;2.60;2.40;;;;;;;20.37;50.27;97966.44;5114156;28;20258;-55
2023/07/29 03:03:53;;;;;;;2.33;2.13;;;;;;;20.34;50.49;97960.72;5114318;28;20183;-55
2023/07/29 03:06:19;;;;;;;3.83;2.65;;;;;;;20.52;50.44;98001.44;5113983;28;20191;-55
2023/07/29 03:08:44;;;;;;;2.55;2.40;;;;;;;20.53;50.39;98000.47;5114033;28;20175;-56
2023/07/29 03:11:12;;;;;;;2.65;2.42;;;;;;;20.57;50.31;97999.09;5113887;28;20190;-56
2023/07/29 03:13:37;;;;;;;2.80;2.60;;;;;;;20.41;50.04;97959.00;5113886;28;20178;-56
2023/07/29 03:16:06;;;;;;;2.90;2.60;;;;;;;20.69;49.97;97997.69;5113841;28;20175;-56
2023/07/29 03:18:32;;;;;;;2.97;2.40;;;;;;;20.74;49.98;97991.91;5113812;28;20175;-56
2023/07/29 03:20:57;;;;;;;3.78;2.30;;;;;;;20.70;49.94;97993.25;5113493;27;20186;-56
2023/07/29 03:23:23;;;;;;;2.83;2.63;;;;;;;20.66;50.03;98002.47;5113649;28;20209;-56
2023/07/29 03:25:51;;;;;;;2.72;2.53;;;;;;;20.57;50.19;97998.31;5113406;28;20175;-56
2023/07/29 03:28:16;;;;;;;3.22;2.55;;;;;;;20.43;50.50;97981.50;5113464;28;20233;-56
2023/07/29 03:30:42;;;;;;;2.70;2.50;;;;;;;20.46;50.39;97983.75;5113579;28;20297;-56
2023/07/29 03:33:07;;;;;;;2.85;2.65;;;;;;;20.65;50.31;98021.88;5113594;28;20175;-55
2023/07/29 03:35:32;;;;;;;2.63;2.30;;;;;;;20.37;50.43;97982.19;5110825;28;20190;-55
2023/07/29 03:37:58;;;;;;;2.85;2.65;;;;;;;20.43;50.61;98001.69;5110525;28;20266;-56
2023/07/29 03:40:23;;;;;;;2.95;2.75;;;;;;;20.45;50.52;98002.34;5110286;28;20664;-56
2023/07/29 03:42:49;;;;;;;2.55;2.35;;;;;;;20.43;50.53;98007.78;5110845;28;20191;-55
2023/07/29 03:45:14;;;;;;;2.97;2.78;;;;;;;20.52;50.42;98005.91;5110730;28;20187;-56
2023/07/29 03:47:40;;;;;;;3.00;2.70;;;;;;;20.46;50.43;97996.09;5110744;28;20278;-55
2023/07/29 03:50:06;;;;;;;3.22;3.03;;;;;;;20.56;50.32;98010.63;5110570;28;20207;-55
2023/07/29 03:52:31;;;;;;;3.72;2.75;;;;;;;20.73;50.25;98027.06;5110798;28;20606;-56
2023/07/29 03:54:56;;;;;;;2.60;2.40;;;;;;;20.79;50.04;98029.00;5110598;28;20222;-55
2023/07/29 03:57:22;;;;;;;2.40;2.25;;;;;;;20.79;49.81;98011.41;5110535;28;20186;-55
2023/07/29 03:59:47;;;;;;;2.60;2.40;;;;;;;20.75;49.76;97996.97;5110519;28;20175;-55
2023/07/29 04:02:12;;;;;;;4.20;2.60;;;;;;;20.82;49.67;98018.13;5110447;28;20187;-55
2023/07/29 04:04:38;;;;;;;2.78;2.40;;;;;;;20.88;49.77;98025.31;5110479;28;20194;-56
2023/07/29 04:07:04;;;;;;;2.40;2.00;;;;;;;20.84;49.36;98001.16;5112259;28;20284;-55
2023/07/29 04:09:29;;;;;;;2.35;2.25;;;;;;;21.17;49.05;98038.53;5112713;28;20199;-56
2023/07/29 04:11:55;;;;;;;2.92;2.40;;;;;;;21.36;48.43;98038.81;5112528;28;20182;-56
2023/07/29 04:14:20;;;;;;;2.28;2.10;;;;;;;21.29;48.26;98021.28;5109909;28;20186;-56
2023/07/29 04:16:46;;;;;;;2.28;2.13;;;;;;;21.39;48.55;98048.19;5110057;28;20195;-55
2023/07/29 04:19:11;;;;;;;3.92;2.47;;;;;;;21.27;48.38;98024.09;5110119;28;20352;-56
2023/07/29 04:21:36;;;;;;;2.38;2.28;;;;;;;21.15;48.66;98025.53;5110060;28;20182;-56
2023/07/29 04:24:02;;;;;;;3.03;2.72;;;;;;;21.14;48.86;98037.06;5109978;28;20236;-56
2023/07/29 04:26:27;;;;;;;2.30;2.10;;;;;;;21.09;48.81;98018.38;5110386;28;20179;-56
2023/07/29 04:28:53;;;;;;;2.97;2.55;;;;;;;21.22;48.81;98025.66;5110174;28;20189;-56
2023/07/29 04:31:18;;;;;;;2.40;2.30;;;;;;;21.43;48.47;98046.78;5109896;28;20660;-56
2023/07/29 04:33:43;;;;;;;2.50;2.30;;;;;;;21.29;48.29;98021.28;5109930;28;20190;-56
2023/07/29 04:36:09;;;;;;;5.20;2.50;;;;;;;21.35;48.40;98029.28;5109858;28;20186;-56
2023/07/29 04:38:37;;;;;;;2.05;1.95;;;;;;;21.38;48.38;98038.66;5109859;28;20721;-56
2023/07/29 04:41:02;;;;;;;3.88;2.53;;;;;;;21.34;48.50;98040.81;5109712;28;20190;-56
2023/07/29 04:43:30;;;;;;;3.50;2.80;;;;;;;21.46;48.25;98051.72;5109665;28;20175;-56
2023/07/29 04:45:56;;;;;;;2.70;2.50;;;;;;;21.53;48.26;98047.34;5111199;28;20179;-56
2023/07/29 04:48:21;;;;;;;2.50;2.40;;;;;;;21.71;48.02;98056.56;5112040;28;20236;-56
2023/07/29 04:50:47;;;;;;;2.70;2.50;;;;;;;21.71;47.43;98053.91;5111582;28;20619;-56
2023/07/29 04:53:12;;;;;;;2.45;2.30;;;;;;;21.73;47.31;98035.31;5112011;28;20175;-56
2023/07/29 04:55:38;;;;;;;3.03;2.33;;;;;;;21.87;47.34;98064.25;5112011;28;20207;-56
2023/07/29 04:58:03;;;;;;;5.45;2.70;;;;;;;21.72;47.64;98050.28;5112074;28;20171;-56
2023/07/29 05:00:28;;;;;;;2.50;2.30;;;;;;;21.66;47.45;98029.06;5111938;28;20171;-56
2023/07/29 05:02:54;;;;;;;3.00;2.80;;;;;;;21.80;47.38;98044.91;5112134;28;20253;-56
2023/07/29 05:05:19;;;;;;;2.60;2.38;;;;;;;21.85;47.44;98062.81;5111830;28;20167;-56
2023/07/29 05:07:44;;;;;;;2.20;2.05;;;;;;;21.96;47.20;98046.53;5112283;28;20294;-56
2023/07/29 05:10:11;;;;;;;2.20;2.10;;;;;;;21.99;46.74;98041.72;5112015;28;20256;-56
2023/07/29 05:12:36;;;;;;;2.70;2.50;;;;;;;21.92;46.99;98016.28;5112038;28;20638;-56
2023/07/29 05:15:02;;;;;;;2.70;2.47;;;;;;;22.21;46.68;98056.53;5112060;28;20183;-56
2023/07/29 05:17:28;;;;;;;2.58;2.38;;;;;;;22.29;46.56;98052.97;5111922;28;20178;-56
2023/07/29 05:19:53;;;;;;;2.42;2.33;;;;;;;22.29;46.41;98031.88;5112132;28;20701;-56
2023/07/29 05:22:18;;;;;;;5.63;2.80;;;;;;;22.54;45.97;98057.72;5111853;28;20263;-56
2023/07/29 05:24:44;;;;;;;2.80;2.10;;;;;;;22.47;45.83;98032.28;5112235;28;20648;-56
2023/07/29 05:27:09;;;;;;;2.45;2.25;;;;;;;22.58;45.74;98052.88;5111804;28;20262;-56
2023/07/29 05:29:35;;;;;;;3.15;2.30;;;;;;;22.71;45.70;98050.38;5111758;28;20298;-56
2023/07/29 05:32:00;;;;;;;3.97;2.50;;;;;;;22.74;45.81;98063.19;5111880;28;21296;-56
2023/07/29 05:34:26;;;;;;;2.50;2.30;;;;;;;22.82;45.47;98066.50;5111760;28;20175;-56
2023/07/29 05:36:52;;;;;;;2.50;2.40;;;;;;;22.90;45.37;98066.38;5111761;28;20175;-56
2023/07/29 05:39:17;;;;;;;4.53;2.33;;;;;;;22.89;45.04;98062.09;5111455;28;20198;-56
2023/07/29 05:41:42;;;;;;;4.65;2.17;;;;;;;22.99;45.09;98069.69;5111654;28;20171;-57
2023/07/29 05:44:08;;;;;;;7.05;2.65;;;;;;;23.03;45.34;98057.75;5109099;28;20592;-56
2023/07/29 05:46:33;;;;;;;5.90;3.60;;;;;;;23.41;45.17;98098.66;5109365;28;20179;-56
2023/07/29 05:48:58;;;;;;;14.48;6.30;;;;;;;23.57;44.01;98090.44;5109177;28;20183;-56
2023/07/29 05:51:24;;;;;;;21.67;7.80;;;;;;;23.81;43.84;98104.81;5109279;28;20261;-56
2023/07/29 05:53:49;;;;;;;22.88;10.10;;;;;;;24.03;43.64;98106.38;5109338;28;20175;-56
2023/07/29 05:56:15;;;;;;;18.20;8.55;;;;;;;24.22;43.00;98104.84;5109266;28;20240;-56
2023/07/29 05:58:40;;;;;;;13.93;6.40;;;;;;;24.05;42.67;98061.25;5109171;28;20251;-56
2023/07/29 06:01:05;;;;;;;12.70;6.43;;;;;;;24.35;42.83;98095.13;5109144;28;20183;-57
2023/07/29 06:03:31;;;;;;;12.63;6.32;;;;;;;24.35;42.49;98078.44;5112729;28;20634;-56
2023/07/29 06:05:56;;;;;;;13.98;5.55;;;;;;;24.64;42.07;98107.22;5113131;28;20281;-56
2023/07/29 06:08:21;;;;;;;9.10;5.40;;;;;;;24.73;41.91;98098.91;5113306;28;20726;-56
2023/07/29 06:10:47;;;;;;;12.30;5.57;;;;;;;24.73;41.92;98074.28;5113122;28;20234;-56
2023/07/29 06:13:12;;;;;;;9.98;5.47;;;;;;;24.85;41.93;98060.22;5113191;28;20180;-57
2023/07/29 06:15:38;;;;;;;9.80;5.38;;;;;;;25.17;41.31;98096.50;5112988;28;20717;-56
2023/07/29 06:18:03;;;;;;;10.32;5.18;;;;;;;25.30;41.11;98091.22;5112704;28;20190;-56
2023/07/29 06:20:29;;;;;;;7.25;4.05;;;;;;;25.29;40.94;98073.69;5112830;28;20175;-56
2023/07/29 06:22:54;;;;;;;10.55;3.35;;;;;;;25.25;40.87;98059.22;5115464;28;20171;-57
2023/07/29 06:25:19;;;;;;;7.85;3.20;;;;;;;25.31;40.44;98103.44;5115484;28;20196;-56
2023/07/29 06:27:45;;;;;;;4.18;2.97;;;;;;;25.38;40.54;98077.75;5115406;27;20262;-57
2023/07/29 06:30:10;;;;;;;4.40;3.47;;;;;;;25.33;40.33;98061.69;5115334;28;20255;-55
2023/07/29 06:32:36;;;;;;;12.80;4.70;;;;;;;25.27;40.46;98070.44;5115247;28;20186;-56
2023/07/29 06:35:01;;;;;;;8.93;4.13;;;;;;;25.40;40.17;98065.13;5115159;28;20175;-56
2023/07/29 06:37:27;;;;;;;8.32;4.00;;;;;;;25.58;39.80;98067.94;5115184;28;20279;-56
2023/07/29 06:39:52;;;;;;;6.03;3.75;;;;;;;25.80;38.81;98061.34;5115062;28;20708;-57
2023/07/29 06:42:17;;;;;;;7.57;3.97;;;;;;;26.15;39.01;98097.16;5114819;28;20175;-57
2023/07/29 06:44:45;;;;;;;9.00;4.07;;;;;;;26.26;39.04;98093.84;5115006;28;20258;-57
2023/07/29 06:47:11;;;;;;;7.03;4.55;;;;;;;26.47;37.68;98106.00;5114813;28;20212;-57
2023/07/29 06:49:36;;;;;;;4.65;3.75;;;;;;;26.46;37.21;98094.56;5114803;28;20242;-56
2023/07/29 06:52:02;;;;;;;5.55;3.85;;;;;;;26.42;37.22;98077.41;5114768;28;20286;-57
2023/07/29 06:54:27;;;;;;;4.43;3.25;;;;;;;26.50;37.17;98073.69;5114382;28;20167;-57
2023/07/29 06:56:53;;;;;;;3.65;3.08;;;;;;;26.61;37.22;98088.97;5114646;28;20268;-56
2023/07/29 06:59:18;;;;;;;5.18;3.10;;;;;;;26.60;36.47;98069.56;5114718;28;20556;-57
2023/07/29 07:01:43;;;;;;;3.53;3.10;;;;;;;26.63;36.74;98068.34;5114609;28;20610;-56
2023/07/29 07:04:09;;;;;;;3.20;2.92;;;;;;;26.83;36.05;98101.69;5114525;28;20163;-57
2023/07/29 07:06:35;;;;;;;5.15;3.22;;;;;;;26.83;35.64;98100.91;5114508;28;20271;-57
2023/07/29 07:09:00;;;;;;;4.78;2.90;;;;;;;26.86;36.25;98093.31;5114401;28;20179;-56
2023/07/29 07:11:25;;;;;;;3.90;2.75;;;;;;;26.99;37.05;98097.72;5114434;28;20171;-56
2023/07/29 07:13:51;;;;;;;7.50;3.30;;;;;;;26.85;36.55;98072.28;5112867;28;20605;-56
2023/07/29 07:16:16;;;;;;;6.38;3.10;;;;;;;26.93;36.60;98070.16;5114384;28;20172;-56
2023/07/29 07:18:42;;;;;;;4.60;3.05;;;;;;;27.22;36.63;98101.44;5114218;28;20718;-56
2023/07/29 07:21:07;;;;;;;3.92;3.03;;;;;;;27.20;36.76;98092.88;5114316;28;20175;-56
2023/07/29 07:23:32;;;;;;;5.07;3.42;;;;;;;27.20;36.99;98084.91;5114174;28;20248;-56
2023/07/29 07:25:58;;;;;;;4.13;2.88;;;;;;;27.35;36.36;98101.31;5114251;28;20228;-56
2023/07/29 07:28:23;;;;;;;5.68;3.22;;;;;;;27.17;36.81;98081.88;5114242;28;20175;-56
2023/07/29 07:30:48;;;;;;;7.25;3.70;;;;;;;27.27;36.84;98098.13;5114095;28;20246;-56
2023/07/29 07:33:14;;;;;;;3.28;3.08;;;;;;;27.24;36.77;98074.66;5114104;28;20553;-56
2023/07/29 07:35:39;;;;;;;4.95;2.80;;;;;;;27.24;36.60;98059.50;5113837;28;20175;-56
2023/07/29 07:38:07;;;;;;;6.28;3.45;;;;;;;27.48;36.36;98082.59;5114039;28;20553;-56
2023/07/29 07:40:33;;;;;;;6.88;3.22;;;;;;;27.42;36.89;98085.31;5113967;28;20214;-56
2023/07/29 07:42:58;;;;;;;5.28;3.25;;;;;;;27.38;36.76;98061.03;5113960;28;20175;-56
2023/07/29 07:45:24;;;;;;;6.28;3.70;;;;;;;26.75;37.01;98040.91;5113909;28;20216;-56
2023/07/29 07:47:52;;;;;;;4.05;3.17;;;;;;;27.10;36.77;98065.94;5113797;28;20175;-56
2023/07/29 07:50:17;;;;;;;9.23;3.22;;;;;;;27.13;37.31;98046.09;5113657;28;20199;-56
2023/07/29 07:52:43;;;;;;;6.00;3.38;;;;;;;27.29;36.80;98059.66;5113734;28;20175;-56
2023/07/29 07:55:08;;;;;;;3.63;3.30;;;;;;;27.45;36.31;98069.75;5113663;28;20197;-56
2023/07/29 07:57:34;;;;;;;5.72;3.38;;;;;;;27.40;36.06;98039.56;5113289;28;20178;-56
2023/07/29 07:59:59;;;;;;;4.68;2.83;;;;;;;27.60;35.98;98046.28;5113492;28;20175;-56
2023/07/29 08:02:24;;;;;;;4.18;3.20;;;;;;;27.64;36.25;98038.69;5113512;28;20175;-58
2023/07/29 08:04:50;;;;;;;5.93;3.20;;;;;;;27.76;36.03;98056.31;5113478;28;20171;-55
2023/07/29 08:07:15;;;;;;;4.28;3.35;;;;;;;27.89;35.82;98047.41;5113542;28;20190;-57
2023/07/29 08:09:40;;;;;;;7.05;3.50;;;;;;;27.96;35.02;98056.94;5113361;28;20228;-58
2023/07/29 08:12:06;;;;;;;5.32;3.30;;;;;;;27.99;35.22;98043.19;5113552;28;20178;-56
2023/07/29 08:14:33;;;;;;;8.77;3.72;;;;;;;27.82;35.29;98020.88;5113194;28;20605;-56
2023/07/29 08:16:58;;;;;;;3.58;3.28;;;;;;;27.96;35.48;98018.88;5113149;28;20229;-55
2023/07/29 08:19:23;;;;;;;5.55;2.95;;;;;;;28.23;35.66;98052.88;5113080;28;20236;-55
2023/07/29 08:21:49;;;;;;;8.55;3.50;;;;;;;28.19;35.12;98046.41;5113099;28;20182;-56
2023/07/29 08:24:14;;;;;;;8.93;4.20;;;;;;;28.17;35.51;98043.16;5112720;28;20227;-55
2023/07/29 08:26:40;;;;;;;5.68;3.17;;;;;;;28.00;35.57;98042.16;5112758;28;20171;-55
2023/07/29 08:29:05;;;;;;;7.50;3.40;;;;;;;28.03;35.15;98022.25;5112893;28;20171;-56
2023/07/29 08:31:33;;;;;;;8.07;3.20;;;;;;;28.30;34.94;98044.84;5112904;28;20669;-56
2023/07/29 08:33:59;;;;;;;4.28;3.40;;;;;;;28.33;35.09;98025.75;5112894;28;20636;-57
2023/07/29 08:36:24;;;;;;;9.07;3.00;;;;;;;28.34;34.20;98006.09;5112848;28;20174;-55
2023/07/29 08:38:50;;;;;;;6.70;3.42;;;;;;;28.63;34.23;98035.34;5112837;28;20171;-55
2023/07/29 08:41:25;;;;;;;3.80;3.13;;;;;;;28.67;34.99;98023.22;5112750;28;20596;-55
2023/07/29 08:44:26;;;;;;;8.48;3.38;;;;;;;28.83;34.55;98027.88;5112683;28;20185;-55
2023/07/29 08:46:53;;;;;;;7.65;3.40;;;;;;;28.69;33.73;97994.50;5110026;28;20280;-55
2023/07/29 08:49:19;;;;;;;3.53;3.05;;;;;;;28.81;33.91;97997.97;5110010;28;20194;-55
2023/07/29 08:51:48;;;;;;;12.35;5.63;;;;;;;29.06;33.74;98013.78;5110059;28;20190;-56
2023/07/29 08:54:13;;;;;;;5.60;3.97;;;;;;;29.15;33.68;98021.22;5110035;28;20941;-57
2023/07/29 08:56:41;;;;;;;3.97;3.58;;;;;;;29.11;33.60;97992.59;5109868;28;20191;-57
2023/07/29 08:59:07;;;;;;;6.95;4.55;;;;;;;29.18;33.61;97987.94;5109988;28;20182;-57
2023/07/29 09:01:33;;;;;;;6.28;3.40;;;;;;;29.46;32.54;98004.03;5109821;28;20261;-57
2023/07/29 09:03:59;;;;;;;5.03;3.80;;;;;;;29.35;32.66;97983.53;5109857;28;20279;-57
2023/07/29 09:06:28;;;;;;;7.68;4.40;;;;;;;29.40;32.83;97980.97;5109693;28;20207;-57
2023/07/29 09:08:56;;;;;;;8.73;6.38;;;;;;;29.58;32.69;97987.03;5109727;28;20256;-57
2023/07/29 09:11:22;;;;;;;4.43;4.07;;;;;;;29.62;32.93;97984.69;5109579;28;20223;-57
2023/07/29 09:13:47;;;;;;;3.78;3.00;;;;;;;29.80;32.39;98011.19;5109706;28;20691;-57
2023/07/29 09:16:14;;;;;;;5.32;3.10;;;;;;;29.68;32.13;97979.19;5109761;28;20266;-57
2023/07/29 09:18:39;;;;;;;7.85;3.00;;;;;;;29.90;31.87;98006.88;5111709;28;20285;-57
2023/07/29 09:21:05;;;;;;;3.53;2.92;;;;;;;29.71;31.93;97978.75;5111849;28;20181;-57
2023/07/29 09:23:43;;;;;;;6.75;3.00;;;;;;;29.88;32.27;98006.31;5111785;28;20291;-56
2023/07/29 09:26:09;;;;;;;6.20;3.28;;;;;;;29.93;31.14;97998.41;5112094;28;20167;-56
2023/07/29 09:28:37;;;;;;;6.13;2.85;;;;;;;29.77;31.38;97975.13;5111949;28;20223;-56
2023/07/29 09:31:02;;;;;;;4.60;2.80;;;;;;;29.94;31.50;97994.69;5111852;28;20194;-56
2023/07/29 09:33:28;;;;;;;4.53;2.83;;;;;;;29.91;31.75;97973.00;5111929;28;20179;-56
2023/07/29 09:35:54;;;;;;;3.47;2.65;;;;;;;29.89;31.49;97967.06;5111591;28;20630;-56
2023/07/29 09:38:26;;;;;;;5.45;3.15;;;;;;;30.18;31.54;97990.91;5111602;28;20676;-56
2023/07/29 09:40:55;;;;;;;4.25;2.85;;;;;;;30.21;31.23;97987.72;5111886;28;20175;-56
2023/07/29 09:43:25;;;;;;;2.80;2.50;;;;;;;30.08;30.77;97947.19;5111560;28;20175;-56
2023/07/29 09:45:52;;;;;;;2.72;2.53;;;;;;;30.30;30.55;97972.97;5111846;28;20171;-56
2023/07/29 09:48:22;;;;;;;4.35;3.15;;;;;;;30.16;30.83;97939.63;5111453;28;20175;-56
2023/07/29 09:50:48;;;;;;;5.78;2.92;;;;;;;30.32;31.07;97967.38;5111637;28;20231;-56
2023/07/29 09:53:14;;;;;;;4.43;2.80;;;;;;;30.19;31.44;97944.47;5111693;28;20279;-56
2023/07/29 09:55:39;;;;;;;2.97;2.47;;;;;;;30.26;31.16;97939.78;5111666;28;20171;-56
2023/07/29 09:58:08;;;;;;;2.80;2.60;;;;;;;30.48;31.24;97970.06;5111892;28;20177;-56
2023/07/29 10:00:34;;;;;;;4.80;2.60;;;;;;;30.61;30.86;97967.06;5111609;28;20705;-56
2023/07/29 10:03:00;;;;;;;5.07;2.70;;;;;;;30.67;29.55;97952.00;5111494;28;20179;-56
2023/07/29 10:05:27;;;;;;;2.40;2.30;;;;;;;30.71;29.36;97945.91;5111669;28;20175;-57
2023/07/29 10:07:54;;;;;;;3.50;2.60;;;;;;;30.75;29.43;97939.03;5108755;28;20199;-57
2023/07/29 10:10:20;;;;;;;3.17;2.80;;;;;;;30.96;29.51;97946.28;5109075;28;20525;-56
2023/07/29 10:12:46;;;;;;;5.47;3.15;;;;;;;31.05;30.11;97952.84;5109051;28;20198;-57
2023/07/29 10:15:12;;;;;;;3.85;2.80;;;;;;;31.07;29.92;97939.25;5109128;28;20175;-57
2023/07/29 10:17:39;;;;;;;4.45;2.60;;;;;;;31.23;29.50;97970.47;5109093;28;20185;-57
2023/07/29 10:20:06;;;;;;;5.85;2.80;;;;;;;31.36;29.04;97962.13;5109114;28;20390;-56
2023/07/29 10:22:42;;;;;;;3.83;2.85;;;;;;;31.40;29.26;97950.69;5109086;28;20183;-56
2023/07/29 10:25:21;;;;;;;6.65;2.50;;;;;;;31.54;28.57;97949.25;5109038;28;20199;-56
2023/07/29 10:27:53;;;;;;;7.30;2.80;;;;;;;31.62;28.69;97956.03;5109070;28;20269;-57
2023/07/29 10:30:19;;;;;;;6.22;3.13;;;;;;;31.63;29.09;97931.72;5108893;28;20203;-57
2023/07/29 10:32:45;;;;;;;3.17;2.75;;;;;;;31.95;28.79;97953.25;5108992;28;20247;-57
2023/07/29 10:35:14;;;;;;;5.85;2.88;;;;;;;31.89;28.96;97952.34;5108869;28;20252;-57
2023/07/29 10:37:41;;;;;;;5.55;3.08;;;;;;;31.50;28.76;97921.41;5108867;28;20266;-57
2023/07/29 10:40:11;;;;;;;5.18;2.30;;;;;;;31.47;28.64;97932.56;5108720;28;20241;-57
2023/07/29 10:42:37;;;;;;;2.90;2.60;;;;;;;31.68;28.78;97933.63;5108889;28;20214;-57
2023/07/29 10:45:20;;;;;;;4.50;2.55;;;;;;;32.00;28.24;97948.72;5109545;28;20183;-57
2023/07/29 10:47:46;;;;;;;6.03;2.75;;;;;;;32.21;28.19;97950.56;5111728;28;20179;-56
2023/07/29 10:50:21;;;;;;;3.95;2.60;;;;;;;32.28;28.25;97927.09;5114731;28;20217;-57
2023/07/29 10:52:51;;;;;;;2.78;2.40;;;;;;;32.64;27.37;97933.56;5114878;28;20269;-57
2023/07/29 10:55:25;;;;;;;3.83;2.20;;;;;;;33.00;26.95;97946.97;5114798;27;20210;-56
2023/07/29 10:57:50;;;;;;;2.65;2.25;;;;;;;33.21;27.24;97945.22;5114715;28;20183;-56
2023/07/29 11:00:16;;;;;;;3.90;2.17;;;;;;;33.25;26.55;97920.31;5114430;28;20228;-56
2023/07/29 11:02:41;;;;;;;3.20;2.00;;;;;;;33.31;26.22;97934.56;5114812;28;20173;-57
2023/07/29 11:05:15;;;;;;;2.97;2.38;;;;;;;33.38;26.40;97914.50;5114672;28;20710;-56
2023/07/29 11:08:15;;;;;;;2.83;1.98;;;;;;;33.38;26.44;97944.00;5114324;28;20277;-56
2023/07/29 11:10:46;;;;;;;3.15;2.33;;;;;;;33.17;26.60;97920.78;5114534;28;20346;-56
2023/07/29 11:13:12;;;;;;;3.08;2.33;;;;;;;33.29;26.77;97923.31;5114588;28;20201;-56
2023/07/29 11:15:39;;;;;;;2.60;2.40;;;;;;;33.52;26.71;97906.78;5114507;28;20174;-56
2023/07/29 11:18:06;;;;;;;5.05;2.30;;;;;;;33.60;26.39;97925.84;5114383;28;20171;-56
2023/07/29 11:20:33;;;;;;;3.10;2.85;;;;;;;33.90;26.67;97928.66;5114107;28;20232;-56
2023/07/29 11:23:00;;;;;;;5.47;2.42;;;;;;;33.93;26.13;97927.34;5114390;28;20505;-56
2023/07/29 11:25:28;;;;;;;6.28;2.22;;;;;;;34.06;26.60;97922.25;5114256;28;20175;-56
2023/07/29 11:27:56;;;;;;;2.10;2.00;;;;;;;34.32;25.56;97926.59;5114466;28;20242;-56
2023/07/29 11:30:29;;;;;;;1.90;1.80;;;;;;;34.28;24.97;97914.78;5113763;28;20210;-56
2023/07/29 11:32:57;;;;;;;3.47;2.40;;;;;;;34.60;24.95;97926.09;5114470;28;20258;-56